sensor_id;sensor_type;location;lat;lon;timestamp;P1;durP1;ratioP1;P2;durP2;ratioP2
51467;SDS011;37545;45.302;-122.946;2024-03-23T00:52:25;3.78;;;1.88;;
51467;SDS011;37545;45.302;-122.946;2024-03-23T00:54:53;4.05;;;1.90;;
51467;SDS011;37545;45.302;-122.946;2024-03-23T00:57:22;2.53;;;1.95;;
51467;SDS011;37545;45.302;-122.946;2024-03-23T00:59:49;2.40;;;1.83;;
51467;SDS011;37545;45.302;-122.946;2024-03-23T01:02:21;2.65;;;1.60;;
51467;SDS011;37545;45.302;-122.946;2024-03-23T01:04:48;3.97;;;2.00;;
51467;SDS011;37545;45.302;-122.946;2024-03-23T01:07:17;3.00;;;1.80;;
51467;SDS011;37545;45.302;-122.946;2024-03-23T01:09:46;3.42;;;1.60;;
51467;SDS011;37545;45.302;-122.946;2024-03-23T01:12:17;2.05;;;1.67;;
51467;SDS011;37545;45.302;-122.946;2024-03-23T01:14:44;2.95;;;1.70;;
51467;SDS011;37545;45.302;-122.946;2024-03-23T01:17:13;2.75;;;1.35;;
51467;SDS011;37545;45.302;-122.946;2024-03-23T01:19:40;2.72;;;1.42;;
51467;SDS011;37545;45.302;-122.946;2024-03-23T01:22:09;3.10;;;1.45;;
51467;SDS011;37545;45.302;-122.946;2024-03-23T01:24:36;2.33;;;1.65;;
51467;SDS011;37545;45.302;-122.946;2024-03-23T01:27:06;2.58;;;1.80;;
51467;SDS011;37545;45.302;-122.946;2024-03-23T01:29:34;2.17;;;1.70;;
51467;SDS011;37545;45.302;-122.946;2024-03-23T01:32:03;4.47;;;1.70;;
51467;SDS011;37545;45.302;-122.946;2024-03-23T01:34:31;2.03;;;1.40;;
51467;SDS011;37545;45.302;-122.946;2024-03-23T01:37:02;3.20;;;1.48;;
51467;SDS011;37545;45.302;-122.946;2024-03-23T01:39:33;3.20;;;1.77;;
51467;SDS011;37545;45.302;-122.946;2024-03-23T01:42:01;1.85;;;1.33;;
51467;SDS011;37545;45.302;-122.946;2024-03-23T01:44:31;2.28;;;1.52;;
51467;SDS011;37545;45.302;-122.946;2024-03-23T01:47:00;5.05;;;1.80;;
51467;SDS011;37545;45.302;-122.946;2024-03-23T01:49:27;2.92;;;1.67;;
51467;SDS011;37545;45.302;-122.946;2024-03-23T01:52:04;2.90;;;2.00;;
51467;SDS011;37545;45.302;-122.946;2024-03-23T01:54:32;3.88;;;2.05;;
51467;SDS011;37545;45.302;-122.946;2024-03-23T01:57:01;3.55;;;1.90;;
51467;SDS011;37545;45.302;-122.946;2024-03-23T01:59:31;5.95;;;1.80;;
51467;SDS011;37545;45.302;-122.946;2024-03-23T02:02:03;7.75;;;2.38;;
51467;SDS011;37545;45.302;-122.946;2024-03-23T02:04:31;3.15;;;1.90;;
51467;SDS011;37545;45.302;-122.946;2024-03-23T02:06:59;2.95;;;1.45;;
51467;SDS011;37545;45.302;-122.946;2024-03-23T02:09:27;3.28;;;1.70;;
51467;SDS011;37545;45.302;-122.946;2024-03-23T02:11:57;3.20;;;2.20;;
51467;SDS011;37545;45.302;-122.946;2024-03-23T02:14:25;4.35;;;1.70;;
51467;SDS011;37545;45.302;-122.946;2024-03-23T02:16:55;2.88;;;1.83;;
51467;SDS011;37545;45.302;-122.946;2024-03-23T02:19:23;3.75;;;2.40;;
51467;SDS011;37545;45.302;-122.946;2024-03-23T02:21:51;2.75;;;1.77;;
51467;SDS011;37545;45.302;-122.946;2024-03-23T02:24:23;4.38;;;2.03;;
51467;SDS011;37545;45.302;-122.946;2024-03-23T02:26:52;4.55;;;2.65;;
51467;SDS011;37545;45.302;-122.946;2024-03-23T02:29:19;2.58;;;1.98;;
51467;SDS011;37545;45.302;-122.946;2024-03-23T02:31:48;4.80;;;2.45;;
51467;SDS011;37545;45.302;-122.946;2024-03-23T02:34:15;3.35;;;2.30;;
51467;SDS011;37545;45.302;-122.946;2024-03-23T02:36:48;4.05;;;2.67;;
51467;SDS011;37545;45.302;-122.946;2024-03-23T02:39:16;3.42;;;2.40;;
51467;SDS011;37545;45.302;-122.946;2024-03-23T02:41:46;5.63;;;2.72;;
51467;SDS011;37545;45.302;-122.946;2024-03-23T02:44:13;6.43;;;2.95;;
51467;SDS011;37545;45.302;-122.946;2024-03-23T02:46:42;3.92;;;2.42;;
51467;SDS011;37545;45.302;-122.946;2024-03-23T02:49:12;6.47;;;2.47;;
51467;SDS011;37545;45.302;-122.946;2024-03-23T02:51:42;6.32;;;2.55;;
51467;SDS011;37545;45.302;-122.946;2024-03-23T02:54:11;3.63;;;2.55;;
51467;SDS011;37545;45.302;-122.946;2024-03-23T02:56:39;4.22;;;2.65;;
51467;SDS011;37545;45.302;-122.946;2024-03-23T02:59:12;4.15;;;1.88;;
51467;SDS011;37545;45.302;-122.946;2024-03-23T03:01:41;2.95;;;2.30;;
51467;SDS011;37545;45.302;-122.946;2024-03-23T03:04:08;3.72;;;2.05;;
51467;SDS011;37545;45.302;-122.946;2024-03-23T03:06:37;3.95;;;1.80;;
51467;SDS011;37545;45.302;-122.946;2024-03-23T03:09:04;6.72;;;1.75;;
51467;SDS011;37545;45.302;-122.946;2024-03-23T03:11:35;4.47;;;2.22;;
51467;SDS011;37545;45.302;-122.946;2024-03-23T03:14:05;5.32;;;2.15;;
51467;SDS011;37545;45.302;-122.946;2024-03-23T03:16:35;3.05;;;2.05;;
51467;SDS011;37545;45.302;-122.946;2024-03-23T03:19:02;3.08;;;1.98;;
51467;SDS011;37545;45.302;-122.946;2024-03-23T03:21:31;3.72;;;2.03;;
51467;SDS011;37545;45.302;-122.946;2024-03-23T03:24:01;2.88;;;1.80;;
51467;SDS011;37545;45.302;-122.946;2024-03-23T03:26:30;2.50;;;1.70;;
51467;SDS011;37545;45.302;-122.946;2024-03-23T03:28:57;3.75;;;1.55;;
51467;SDS011;37545;45.302;-122.946;2024-03-23T03:31:26;3.70;;;1.40;;
51467;SDS011;37545;45.302;-122.946;2024-03-23T03:33:55;3.35;;;1.50;;
51467;SDS011;37545;45.302;-122.946;2024-03-23T03:38:53;3.50;;;1.90;;
51467;SDS011;37545;45.302;-122.946;2024-03-23T03:41:21;3.10;;;1.17;;
51467;SDS011;37545;45.302;-122.946;2024-03-23T03:43:49;4.35;;;1.73;;
51467;SDS011;37545;45.302;-122.946;2024-03-23T03:46:17;2.88;;;1.90;;
51467;SDS011;37545;45.302;-122.946;2024-03-23T03:48:45;3.08;;;1.65;;
51467;SDS011;37545;45.302;-122.946;2024-03-23T03:51:15;3.40;;;1.90;;
51467;SDS011;37545;45.302;-122.946;2024-03-23T03:53:43;3.15;;;2.05;;
51467;SDS011;37545;45.302;-122.946;2024-03-23T03:56:12;2.10;;;1.33;;
51467;SDS011;37545;45.302;-122.946;2024-03-23T03:58:39;4.60;;;1.85;;
51467;SDS011;37545;45.302;-122.946;2024-03-23T04:01:08;3.85;;;1.98;;
51467;SDS011;37545;45.302;-122.946;2024-03-23T04:03:35;4.82;;;1.55;;
51467;SDS011;37545;45.302;-122.946;2024-03-23T04:06:05;6.03;;;1.80;;
51467;SDS011;37545;45.302;-122.946;2024-03-23T04:08:34;3.30;;;1.65;;
51467;SDS011;37545;45.302;-122.946;2024-03-23T04:11:03;2.70;;;1.80;;
51467;SDS011;37545;45.302;-122.946;2024-03-23T04:13:31;1.98;;;1.58;;
51467;SDS011;37545;45.302;-122.946;2024-03-23T04:15:59;2.88;;;1.40;;
51467;SDS011;37545;45.302;-122.946;2024-03-23T04:18:27;2.05;;;1.55;;
51467;SDS011;37545;45.302;-122.946;2024-03-23T04:20:55;2.75;;;2.00;;
51467;SDS011;37545;45.302;-122.946;2024-03-23T04:23:24;4.25;;;2.30;;
51467;SDS011;37545;45.302;-122.946;2024-03-23T04:25:53;3.22;;;1.48;;
51467;SDS011;37545;45.302;-122.946;2024-03-23T04:28:22;3.80;;;2.40;;
51467;SDS011;37545;45.302;-122.946;2024-03-23T04:30:49;4.75;;;2.35;;
51467;SDS011;37545;45.302;-122.946;2024-03-23T04:33:18;7.22;;;2.65;;
51467;SDS011;37545;45.302;-122.946;2024-03-23T04:35:46;7.63;;;3.65;;
51467;SDS011;37545;45.302;-122.946;2024-03-23T04:38:17;6.87;;;3.67;;
51467;SDS011;37545;45.302;-122.946;2024-03-23T04:40:47;4.70;;;2.70;;
51467;SDS011;37545;45.302;-122.946;2024-03-23T04:43:24;9.23;;;2.85;;
51467;SDS011;37545;45.302;-122.946;2024-03-23T04:45:53;6.07;;;3.00;;
51467;SDS011;37545;45.302;-122.946;2024-03-23T04:48:22;6.82;;;2.97;;
51467;SDS011;37545;45.302;-122.946;2024-03-23T04:50:54;4.57;;;2.20;;
51467;SDS011;37545;45.302;-122.946;2024-03-23T04:53:24;5.60;;;2.95;;
51467;SDS011;37545;45.302;-122.946;2024-03-23T04:55:54;6.07;;;2.63;;
51467;SDS011;37545;45.302;-122.946;2024-03-23T04:58:24;4.82;;;2.22;;
51467;SDS011;37545;45.302;-122.946;2024-03-23T05:00:55;5.63;;;2.83;;
51467;SDS011;37545;45.302;-122.946;2024-03-23T05:03:24;4.43;;;2.70;;
51467;SDS011;37545;45.302;-122.946;2024-03-23T05:05:52;4.50;;;2.85;;
51467;SDS011;37545;45.302;-122.946;2024-03-23T05:08:20;7.57;;;2.92;;
51467;SDS011;37545;45.302;-122.946;2024-03-23T05:10:48;8.82;;;3.67;;
51467;SDS011;37545;45.302;-122.946;2024-03-23T05:13:18;6.47;;;2.97;;
51467;SDS011;37545;45.302;-122.946;2024-03-23T05:15:50;7.25;;;4.13;;
51467;SDS011;37545;45.302;-122.946;2024-03-23T05:18:20;6.05;;;3.33;;
51467;SDS011;37545;45.302;-122.946;2024-03-23T05:20:55;8.27;;;4.00;;
51467;SDS011;37545;45.302;-122.946;2024-03-23T05:23:23;5.75;;;3.67;;
51467;SDS011;37545;45.302;-122.946;2024-03-23T05:25:52;8.10;;;3.65;;
51467;SDS011;37545;45.302;-122.946;2024-03-23T05:28:21;5.07;;;2.88;;
51467;SDS011;37545;45.302;-122.946;2024-03-23T05:30:53;6.13;;;3.33;;
51467;SDS011;37545;45.302;-122.946;2024-03-23T05:33:20;6.43;;;3.38;;
51467;SDS011;37545;45.302;-122.946;2024-03-23T05:35:56;4.72;;;2.90;;
51467;SDS011;37545;45.302;-122.946;2024-03-23T05:38:24;8.52;;;2.95;;
51467;SDS011;37545;45.302;-122.946;2024-03-23T05:40:54;3.72;;;2.92;;
51467;SDS011;37545;45.302;-122.946;2024-03-23T05:43:25;7.38;;;2.80;;
51467;SDS011;37545;45.302;-122.946;2024-03-23T05:45:54;5.65;;;3.33;;
51467;SDS011;37545;45.302;-122.946;2024-03-23T05:48:22;4.43;;;2.88;;
51467;SDS011;37545;45.302;-122.946;2024-03-23T05:50:51;6.35;;;3.63;;
51467;SDS011;37545;45.302;-122.946;2024-03-23T05:53:19;5.55;;;3.53;;
51467;SDS011;37545;45.302;-122.946;2024-03-23T05:55:48;4.90;;;2.50;;
51467;SDS011;37545;45.302;-122.946;2024-03-23T05:58:15;5.47;;;3.22;;
51467;SDS011;37545;45.302;-122.946;2024-03-23T06:00:47;7.68;;;4.63;;
51467;SDS011;37545;45.302;-122.946;2024-03-23T06:03:14;5.50;;;3.08;;
51467;SDS011;37545;45.302;-122.946;2024-03-23T06:05:43;6.70;;;3.17;;
51467;SDS011;37545;45.302;-122.946;2024-03-23T06:08:11;5.07;;;3.60;;
51467;SDS011;37545;45.302;-122.946;2024-03-23T06:10:40;5.22;;;3.08;;
51467;SDS011;37545;45.302;-122.946;2024-03-23T06:13:08;7.00;;;3.55;;
51467;SDS011;37545;45.302;-122.946;2024-03-23T06:15:36;4.88;;;3.38;;
51467;SDS011;37545;45.302;-122.946;2024-03-23T06:18:06;8.75;;;4.57;;
51467;SDS011;37545;45.302;-122.946;2024-03-23T06:20:34;4.78;;;3.28;;
51467;SDS011;37545;45.302;-122.946;2024-03-23T06:23:02;4.40;;;3.00;;
51467;SDS011;37545;45.302;-122.946;2024-03-23T06:25:31;4.50;;;3.22;;
51467;SDS011;37545;45.302;-122.946;2024-03-23T06:27:58;7.30;;;3.55;;
51467;SDS011;37545;45.302;-122.946;2024-03-23T06:30:28;5.88;;;3.10;;
51467;SDS011;37545;45.302;-122.946;2024-03-23T06:32:55;6.40;;;3.30;;
51467;SDS011;37545;45.302;-122.946;2024-03-23T06:35:26;5.05;;;2.97;;
51467;SDS011;37545;45.302;-122.946;2024-03-23T06:37:53;6.10;;;2.92;;
51467;SDS011;37545;45.302;-122.946;2024-03-23T06:40:23;7.43;;;3.90;;
51467;SDS011;37545;45.302;-122.946;2024-03-23T06:42:51;7.47;;;3.13;;
51467;SDS011;37545;45.302;-122.946;2024-03-23T06:45:19;6.38;;;3.17;;
51467;SDS011;37545;45.302;-122.946;2024-03-23T06:47:49;5.60;;;2.90;;
51467;SDS011;37545;45.302;-122.946;2024-03-23T06:50:17;6.20;;;3.60;;
51467;SDS011;37545;45.302;-122.946;2024-03-23T06:52:49;6.55;;;3.10;;
51467;SDS011;37545;45.302;-122.946;2024-03-23T06:55:16;6.30;;;2.85;;
51467;SDS011;37545;45.302;-122.946;2024-03-23T06:57:45;4.13;;;2.65;;
51467;SDS011;37545;45.302;-122.946;2024-03-23T07:00:13;9.52;;;3.20;;
51467;SDS011;37545;45.302;-122.946;2024-03-23T07:02:42;6.97;;;3.83;;
51467;SDS011;37545;45.302;-122.946;2024-03-23T07:05:10;7.45;;;3.20;;
51467;SDS011;37545;45.302;-122.946;2024-03-23T07:07:38;5.38;;;3.22;;
51467;SDS011;37545;45.302;-122.946;2024-03-23T07:10:10;5.82;;;2.80;;
51467;SDS011;37545;45.302;-122.946;2024-03-23T07:12:39;4.47;;;2.92;;
51467;SDS011;37545;45.302;-122.946;2024-03-23T07:15:07;8.68;;;3.50;;
51467;SDS011;37545;45.302;-122.946;2024-03-23T07:17:36;5.32;;;2.33;;
51467;SDS011;37545;45.302;-122.946;2024-03-23T07:20:07;6.57;;;2.70;;
51467;SDS011;37545;45.302;-122.946;2024-03-23T07:22:37;3.22;;;2.03;;
51467;SDS011;37545;45.302;-122.946;2024-03-23T07:25:05;3.95;;;2.35;;
51467;SDS011;37545;45.302;-122.946;2024-03-23T07:27:36;3.15;;;1.73;;
51467;SDS011;37545;45.302;-122.946;2024-03-23T07:30:07;4.07;;;1.60;;
51467;SDS011;37545;45.302;-122.946;2024-03-23T07:32:36;3.00;;;1.75;;
51467;SDS011;37545;45.302;-122.946;2024-03-23T07:35:04;4.03;;;1.65;;
51467;SDS011;37545;45.302;-122.946;2024-03-23T07:37:33;3.25;;;1.63;;
51467;SDS011;37545;45.302;-122.946;2024-03-23T07:40:00;3.20;;;1.17;;
51467;SDS011;37545;45.302;-122.946;2024-03-23T07:42:32;2.05;;;1.17;;
51467;SDS011;37545;45.302;-122.946;2024-03-23T07:45:00;2.97;;;1.55;;
51467;SDS011;37545;45.302;-122.946;2024-03-23T07:47:28;2.85;;;1.50;;
51467;SDS011;37545;45.302;-122.946;2024-03-23T07:49:56;4.75;;;1.70;;
51467;SDS011;37545;45.302;-122.946;2024-03-23T07:52:27;1.83;;;1.50;;
51467;SDS011;37545;45.302;-122.946;2024-03-23T07:54:55;2.60;;;1.45;;
51467;SDS011;37545;45.302;-122.946;2024-03-23T07:57:23;2.65;;;1.45;;
51467;SDS011;37545;45.302;-122.946;2024-03-23T07:59:52;2.28;;;1.27;;
51467;SDS011;37545;45.302;-122.946;2024-03-23T08:02:21;2.10;;;1.02;;
51467;SDS011;37545;45.302;-122.946;2024-03-23T08:04:48;3.65;;;1.17;;
51467;SDS011;37545;45.302;-122.946;2024-03-23T08:07:17;1.70;;;1.05;;
51467;SDS011;37545;45.302;-122.946;2024-03-23T08:09:44;2.08;;;1.48;;
51467;SDS011;37545;45.302;-122.946;2024-03-23T08:12:14;3.22;;;1.40;;
51467;SDS011;37545;45.302;-122.946;2024-03-23T08:14:41;2.10;;;1.40;;
51467;SDS011;37545;45.302;-122.946;2024-03-23T08:17:12;3.13;;;1.20;;
51467;SDS011;37545;45.302;-122.946;2024-03-23T08:19:39;2.83;;;1.20;;
51467;SDS011;37545;45.302;-122.946;2024-03-23T08:22:08;3.42;;;1.98;;
51467;SDS011;37545;45.302;-122.946;2024-03-23T08:24:36;2.88;;;1.48;;
51467;SDS011;37545;45.302;-122.946;2024-03-23T08:27:04;5.20;;;2.70;;
51467;SDS011;37545;45.302;-122.946;2024-03-23T08:29:32;3.50;;;1.40;;
51467;SDS011;37545;45.302;-122.946;2024-03-23T08:32:00;6.50;;;1.70;;
51467;SDS011;37545;45.302;-122.946;2024-03-23T08:34:30;3.50;;;1.73;;
51467;SDS011;37545;45.302;-122.946;2024-03-23T08:36:57;3.78;;;1.45;;
51467;SDS011;37545;45.302;-122.946;2024-03-23T08:39:26;2.95;;;1.58;;
51467;SDS011;37545;45.302;-122.946;2024-03-23T08:41:54;2.80;;;1.70;;
51467;SDS011;37545;45.302;-122.946;2024-03-23T08:44:22;1.73;;;1.33;;
51467;SDS011;37545;45.302;-122.946;2024-03-23T08:46:50;1.77;;;1.30;;
51467;SDS011;37545;45.302;-122.946;2024-03-23T08:49:19;3.53;;;1.40;;
51467;SDS011;37545;45.302;-122.946;2024-03-23T08:51:48;2.97;;;1.92;;
51467;SDS011;37545;45.302;-122.946;2024-03-23T08:54:17;2.88;;;1.70;;
51467;SDS011;37545;45.302;-122.946;2024-03-23T08:56:45;3.28;;;1.80;;
51467;SDS011;37545;45.302;-122.946;2024-03-23T08:59:14;3.97;;;2.30;;
51467;SDS011;37545;45.302;-122.946;2024-03-23T09:01:41;5.13;;;3.00;;
51467;SDS011;37545;45.302;-122.946;2024-03-23T09:04:10;3.72;;;2.53;;
51467;SDS011;37545;45.302;-122.946;2024-03-23T09:06:37;5.53;;;2.88;;
51467;SDS011;37545;45.302;-122.946;2024-03-23T09:09:08;4.07;;;2.75;;
51467;SDS011;37545;45.302;-122.946;2024-03-23T09:11:35;5.70;;;3.03;;
51467;SDS011;37545;45.302;-122.946;2024-03-23T09:14:04;5.28;;;2.80;;
51467;SDS011;37545;45.302;-122.946;2024-03-23T09:16:32;4.78;;;2.97;;
51467;SDS011;37545;45.302;-122.946;2024-03-23T09:19:00;5.82;;;3.00;;
51467;SDS011;37545;45.302;-122.946;2024-03-23T09:21:28;6.20;;;3.42;;
51467;SDS011;37545;45.302;-122.946;2024-03-23T09:23:56;5.93;;;3.05;;
51467;SDS011;37545;45.302;-122.946;2024-03-23T09:26:28;5.35;;;3.50;;
51467;SDS011;37545;45.302;-122.946;2024-03-23T09:28:57;7.00;;;2.95;;
51467;SDS011;37545;45.302;-122.946;2024-03-23T09:31:24;5.85;;;3.08;;
51467;SDS011;37545;45.302;-122.946;2024-03-23T09:33:53;5.28;;;3.10;;
51467;SDS011;37545;45.302;-122.946;2024-03-23T09:36:20;5.45;;;3.30;;
51467;SDS011;37545;45.302;-122.946;2024-03-23T09:38:49;4.82;;;3.30;;
51467;SDS011;37545;45.302;-122.946;2024-03-23T09:41:16;5.18;;;3.15;;
51467;SDS011;37545;45.302;-122.946;2024-03-23T09:43:47;5.93;;;4.05;;
51467;SDS011;37545;45.302;-122.946;2024-03-23T09:46:15;8.95;;;4.38;;
51467;SDS011;37545;45.302;-122.946;2024-03-23T09:48:44;7.28;;;3.45;;
51467;SDS011;37545;45.302;-122.946;2024-03-23T09:51:13;9.93;;;4.38;;
51467;SDS011;37545;45.302;-122.946;2024-03-23T09:53:42;8.02;;;3.72;;
51467;SDS011;37545;45.302;-122.946;2024-03-23T09:56:09;12.80;;;4.80;;
51467;SDS011;37545;45.302;-122.946;2024-03-23T09:58:38;6.45;;;3.50;;
51467;SDS011;37545;45.302;-122.946;2024-03-23T10:01:07;8.95;;;3.25;;
51467;SDS011;37545;45.302;-122.946;2024-03-23T10:03:46;13.70;;;4.28;;
51467;SDS011;37545;45.302;-122.946;2024-03-23T10:06:13;13.82;;;3.97;;
51467;SDS011;37545;45.302;-122.946;2024-03-23T10:08:50;8.00;;;3.60;;
51467;SDS011;37545;45.302;-122.946;2024-03-23T10:11:18;8.15;;;3.28;;
51467;SDS011;37545;45.302;-122.946;2024-03-23T10:13:47;7.25;;;3.63;;
51467;SDS011;37545;45.302;-122.946;2024-03-23T10:16:23;9.63;;;3.55;;
51467;SDS011;37545;45.302;-122.946;2024-03-23T10:18:52;8.88;;;3.78;;
51467;SDS011;37545;45.302;-122.946;2024-03-23T10:21:20;6.25;;;3.60;;
51467;SDS011;37545;45.302;-122.946;2024-03-23T10:23:49;6.72;;;3.60;;
51467;SDS011;37545;45.302;-122.946;2024-03-23T10:26:17;5.60;;;3.33;;
51467;SDS011;37545;45.302;-122.946;2024-03-23T10:28:56;6.18;;;2.85;;
51467;SDS011;37545;45.302;-122.946;2024-03-23T10:31:27;4.75;;;3.10;;
51467;SDS011;37545;45.302;-122.946;2024-03-23T10:33:59;3.90;;;2.63;;
51467;SDS011;37545;45.302;-122.946;2024-03-23T10:36:27;4.28;;;2.55;;
51467;SDS011;37545;45.302;-122.946;2024-03-23T10:38:58;3.67;;;2.45;;
51467;SDS011;37545;45.302;-122.946;2024-03-23T10:41:29;5.05;;;2.83;;
51467;SDS011;37545;45.302;-122.946;2024-03-23T10:43:59;5.57;;;3.35;;
51467;SDS011;37545;45.302;-122.946;2024-03-23T10:46:30;5.30;;;3.15;;
51467;SDS011;37545;45.302;-122.946;2024-03-23T10:48:59;5.55;;;3.63;;
51467;SDS011;37545;45.302;-122.946;2024-03-23T10:51:26;4.80;;;3.20;;
51467;SDS011;37545;45.302;-122.946;2024-03-23T10:53:56;9.82;;;2.90;;
51467;SDS011;37545;45.302;-122.946;2024-03-23T10:56:26;5.30;;;3.15;;
51467;SDS011;37545;45.302;-122.946;2024-03-23T10:58:59;4.95;;;3.38;;
51467;SDS011;37545;45.302;-122.946;2024-03-23T11:01:30;7.00;;;3.33;;
51467;SDS011;37545;45.302;-122.946;2024-03-23T11:03:59;5.28;;;3.22;;
51467;SDS011;37545;45.302;-122.946;2024-03-23T11:06:36;4.03;;;2.67;;
51467;SDS011;37545;45.302;-122.946;2024-03-23T11:09:10;6.88;;;2.85;;
51467;SDS011;37545;45.302;-122.946;2024-03-23T11:15:02;3.80;;;2.40;;
51467;SDS011;37545;45.302;-122.946;2024-03-23T11:17:39;4.30;;;2.55;;
51467;SDS011;37545;45.302;-122.946;2024-03-23T11:20:08;7.25;;;2.65;;
51467;SDS011;37545;45.302;-122.946;2024-03-23T11:22:40;5.85;;;3.05;;
51467;SDS011;37545;45.302;-122.946;2024-03-23T11:25:16;4.40;;;2.80;;
51467;SDS011;37545;45.302;-122.946;2024-03-23T11:27:46;3.83;;;2.97;;
51467;SDS011;37545;45.302;-122.946;2024-03-23T11:30:15;6.30;;;3.10;;
51467;SDS011;37545;45.302;-122.946;2024-03-23T11:32:49;5.43;;;3.15;;
51467;SDS011;37545;45.302;-122.946;2024-03-23T11:35:26;6.22;;;2.60;;
51467;SDS011;37545;45.302;-122.946;2024-03-23T11:38:03;4.30;;;3.15;;
51467;SDS011;37545;45.302;-122.946;2024-03-23T11:40:31;6.38;;;3.28;;
51467;SDS011;37545;45.302;-122.946;2024-03-23T11:43:00;7.88;;;3.38;;
51467;SDS011;37545;45.302;-122.946;2024-03-23T11:45:29;4.55;;;3.00;;
51467;SDS011;37545;45.302;-122.946;2024-03-23T11:48:05;8.07;;;3.47;;
51467;SDS011;37545;45.302;-122.946;2024-03-23T11:50:36;4.60;;;3.42;;
51467;SDS011;37545;45.302;-122.946;2024-03-23T11:53:07;4.60;;;3.33;;
51467;SDS011;37545;45.302;-122.946;2024-03-23T11:55:45;4.85;;;3.17;;
51467;SDS011;37545;45.302;-122.946;2024-03-23T11:58:14;5.22;;;3.10;;
51467;SDS011;37545;45.302;-122.946;2024-03-23T12:00:42;5.50;;;3.28;;
51467;SDS011;37545;45.302;-122.946;2024-03-23T12:03:18;9.68;;;3.38;;
51467;SDS011;37545;45.302;-122.946;2024-03-23T12:05:49;5.85;;;3.17;;
51467;SDS011;37545;45.302;-122.946;2024-03-23T12:08:19;6.78;;;3.40;;
51467;SDS011;37545;45.302;-122.946;2024-03-23T12:10:49;10.40;;;3.22;;
51467;SDS011;37545;45.302;-122.946;2024-03-23T12:13:19;5.22;;;3.05;;
51467;SDS011;37545;45.302;-122.946;2024-03-23T12:15:48;5.50;;;2.92;;
51467;SDS011;37545;45.302;-122.946;2024-03-23T12:18:19;4.03;;;2.65;;
51467;SDS011;37545;45.302;-122.946;2024-03-23T12:23:18;4.47;;;2.58;;
51467;SDS011;37545;45.302;-122.946;2024-03-23T12:25:48;7.05;;;3.50;;
51467;SDS011;37545;45.302;-122.946;2024-03-23T12:28:17;4.03;;;3.17;;
51467;SDS011;37545;45.302;-122.946;2024-03-23T12:30:44;6.50;;;3.20;;
51467;SDS011;37545;45.302;-122.946;2024-03-23T12:33:13;5.85;;;3.00;;
51467;SDS011;37545;45.302;-122.946;2024-03-23T12:35:42;5.25;;;2.95;;
51467;SDS011;37545;45.302;-122.946;2024-03-23T12:38:11;9.02;;;3.22;;
51467;SDS011;37545;45.302;-122.946;2024-03-23T12:40:38;5.90;;;3.70;;
51467;SDS011;37545;45.302;-122.946;2024-03-23T12:43:09;7.65;;;3.70;;
51467;SDS011;37545;45.302;-122.946;2024-03-23T12:45:36;11.00;;;3.38;;
51467;SDS011;37545;45.302;-122.946;2024-03-23T12:48:05;8.73;;;3.15;;
51467;SDS011;37545;45.302;-122.946;2024-03-23T12:50:33;4.22;;;2.60;;
51467;SDS011;37545;45.302;-122.946;2024-03-23T12:53:03;5.05;;;3.20;;
51467;SDS011;37545;45.302;-122.946;2024-03-23T12:55:31;8.48;;;2.75;;
51467;SDS011;37545;45.302;-122.946;2024-03-23T12:57:59;6.75;;;2.58;;
51467;SDS011;37545;45.302;-122.946;2024-03-23T13:00:27;15.00;;;3.78;;
51467;SDS011;37545;45.302;-122.946;2024-03-23T13:02:55;7.25;;;3.08;;
51467;SDS011;37545;45.302;-122.946;2024-03-23T13:05:23;6.32;;;2.83;;
51467;SDS011;37545;45.302;-122.946;2024-03-23T13:07:54;7.35;;;2.92;;
51467;SDS011;37545;45.302;-122.946;2024-03-23T13:10:23;4.97;;;3.20;;
51467;SDS011;37545;45.302;-122.946;2024-03-23T13:12:52;8.20;;;2.20;;
51467;SDS011;37545;45.302;-122.946;2024-03-23T13:15:19;12.55;;;2.17;;
51467;SDS011;37545;45.302;-122.946;2024-03-23T13:17:48;5.97;;;2.75;;
51467;SDS011;37545;45.302;-122.946;2024-03-23T13:20:18;7.07;;;2.17;;
51467;SDS011;37545;45.302;-122.946;2024-03-23T13:22:47;2.95;;;2.35;;
51467;SDS011;37545;45.302;-122.946;2024-03-23T13:25:17;2.10;;;1.75;;
51467;SDS011;37545;45.302;-122.946;2024-03-23T13:27:47;4.78;;;1.70;;
51467;SDS011;37545;45.302;-122.946;2024-03-23T13:30:15;3.72;;;2.33;;
51467;SDS011;37545;45.302;-122.946;2024-03-23T13:32:43;3.83;;;2.30;;
51467;SDS011;37545;45.302;-122.946;2024-03-23T13:35:11;3.45;;;2.75;;
51467;SDS011;37545;45.302;-122.946;2024-03-23T13:37:39;2.28;;;1.77;;
51467;SDS011;37545;45.302;-122.946;2024-03-23T13:40:07;3.58;;;2.30;;
51467;SDS011;37545;45.302;-122.946;2024-03-23T13:42:37;3.25;;;2.15;;
51467;SDS011;37545;45.302;-122.946;2024-03-23T13:45:06;5.28;;;2.70;;
51467;SDS011;37545;45.302;-122.946;2024-03-23T13:47:37;2.33;;;1.70;;
51467;SDS011;37545;45.302;-122.946;2024-03-23T13:50:05;2.40;;;1.73;;
51467;SDS011;37545;45.302;-122.946;2024-03-23T13:52:35;3.08;;;2.28;;
51467;SDS011;37545;45.302;-122.946;2024-03-23T13:55:02;2.90;;;2.25;;
51467;SDS011;37545;45.302;-122.946;2024-03-23T13:57:33;4.15;;;2.42;;
51467;SDS011;37545;45.302;-122.946;2024-03-23T14:00:00;3.85;;;2.38;;
51467;SDS011;37545;45.302;-122.946;2024-03-23T14:02:32;4.00;;;1.90;;
51467;SDS011;37545;45.302;-122.946;2024-03-23T14:04:59;3.60;;;2.50;;
51467;SDS011;37545;45.302;-122.946;2024-03-23T14:07:30;3.45;;;2.05;;
51467;SDS011;37545;45.302;-122.946;2024-03-23T14:10:02;5.15;;;2.42;;
51467;SDS011;37545;45.302;-122.946;2024-03-23T14:12:32;4.22;;;2.45;;
51467;SDS011;37545;45.302;-122.946;2024-03-23T14:14:59;3.05;;;1.95;;
51467;SDS011;37545;45.302;-122.946;2024-03-23T14:17:28;5.13;;;2.80;;
51467;SDS011;37545;45.302;-122.946;2024-03-23T14:19:57;4.38;;;2.35;;
51467;SDS011;37545;45.302;-122.946;2024-03-23T14:22:27;3.28;;;2.17;;
51467;SDS011;37545;45.302;-122.946;2024-03-23T14:24:54;3.65;;;2.35;;
51467;SDS011;37545;45.302;-122.946;2024-03-23T14:27:23;4.43;;;2.30;;
51467;SDS011;37545;45.302;-122.946;2024-03-23T14:29:50;6.45;;;3.42;;
51467;SDS011;37545;45.302;-122.946;2024-03-23T14:32:19;4.50;;;2.97;;
51467;SDS011;37545;45.302;-122.946;2024-03-23T14:34:48;4.28;;;3.30;;
51467;SDS011;37545;45.302;-122.946;2024-03-23T14:37:17;3.22;;;2.42;;
51467;SDS011;37545;45.302;-122.946;2024-03-23T14:39:46;4.78;;;2.67;;
51467;SDS011;37545;45.302;-122.946;2024-03-23T14:42:13;3.22;;;2.35;;
51467;SDS011;37545;45.302;-122.946;2024-03-23T14:44:43;4.70;;;2.53;;
51467;SDS011;37545;45.302;-122.946;2024-03-23T14:47:12;5.63;;;3.22;;
51467;SDS011;37545;45.302;-122.946;2024-03-23T14:49:41;5.30;;;2.47;;
51467;SDS011;37545;45.302;-122.946;2024-03-23T14:52:13;5.47;;;2.63;;
51467;SDS011;37545;45.302;-122.946;2024-03-23T14:54:42;3.53;;;2.40;;
51467;SDS011;37545;45.302;-122.946;2024-03-23T14:57:10;4.90;;;2.47;;
51467;SDS011;37545;45.302;-122.946;2024-03-23T14:59:39;4.00;;;2.65;;
51467;SDS011;37545;45.302;-122.946;2024-03-23T15:02:07;3.53;;;2.50;;
51467;SDS011;37545;45.302;-122.946;2024-03-23T15:04:36;4.22;;;2.65;;
51467;SDS011;37545;45.302;-122.946;2024-03-23T15:07:03;3.33;;;2.47;;
51467;SDS011;37545;45.302;-122.946;2024-03-23T15:09:34;4.00;;;1.98;;
51467;SDS011;37545;45.302;-122.946;2024-03-23T15:12:01;2.40;;;1.75;;
51467;SDS011;37545;45.302;-122.946;2024-03-23T15:14:30;2.60;;;1.55;;
51467;SDS011;37545;45.302;-122.946;2024-03-23T15:17:00;1.98;;;1.73;;
51467;SDS011;37545;45.302;-122.946;2024-03-23T15:21:59;2.00;;;1.40;;